createdAt,value
2022-12-01T00:01:19.872Z,99.40
2022-12-01T00:03:49.747Z,104.03
2022-12-01T00:06:19.849Z,111.90
2022-12-01T00:09:06.591Z,105.37
2022-12-01T00:11:34.813Z,113.73
2022-12-01T00:14:02.321Z,103.70
2022-12-01T00:16:29.595Z,107.87
2022-12-01T00:18:56.825Z,102.73
2022-12-01T00:21:25.221Z,101.73
2022-12-01T00:23:54.838Z,112.43
2022-12-01T00:26:22.800Z,103.27
2022-12-01T00:28:57.070Z,106.33
2022-12-01T00:31:24.151Z,98.20
2022-12-01T00:33:51.269Z,101.67
2022-12-01T00:36:18.187Z,101.83
2022-12-01T00:38:45.468Z,112.17
2022-12-01T00:41:12.439Z,104.07
2022-12-01T00:43:39.891Z,110.00
2022-12-01T00:46:06.951Z,106.73
2022-12-01T00:48:34.290Z,110.50
2022-12-01T00:51:01.114Z,106.97
2022-12-01T00:53:27.876Z,106.83
2022-12-01T00:55:54.827Z,105.23
2022-12-01T00:58:22.750Z,101.63
2022-12-01T01:00:50.160Z,104.47
2022-12-01T01:03:17.115Z,108.77
2022-12-01T01:05:44.088Z,96.63
2022-12-01T01:08:14.466Z,105.40
2022-12-01T01:10:43.402Z,107.27
2022-12-01T01:13:10.815Z,112.83
2022-12-01T01:15:38.050Z,114.60
2022-12-01T01:18:06.364Z,117.40
2022-12-01T01:20:34.220Z,111.50
2022-12-01T01:23:01.065Z,115.27
2022-12-01T01:25:28.097Z,109.20
2022-12-01T01:27:54.904Z,100.47
2022-12-01T01:30:21.737Z,110.03
2022-12-01T01:32:48.569Z,106.00
2022-12-01T01:35:15.483Z,104.87
2022-12-01T01:37:42.326Z,96.03
2022-12-01T01:40:09.709Z,96.80
2022-12-01T01:42:36.433Z,99.43
2022-12-01T01:45:03.987Z,93.50
2022-12-01T01:47:34.960Z,98.47
2022-12-01T01:50:14.880Z,91.13
2022-12-01T01:53:03.756Z,90.07
2022-12-01T01:55:33.908Z,91.50
2022-12-01T01:58:02.908Z,93.10
2022-12-01T02:00:29.648Z,92.60
2022-12-01T02:02:58.151Z,88.23
2022-12-01T02:05:29.597Z,92.77
2022-12-01T02:07:58.579Z,92.57
2022-12-01T02:10:59.383Z,87.27
2022-12-01T02:13:39.132Z,99.10
2022-12-01T02:16:25.994Z,85.13
2022-12-01T02:18:52.859Z,93.37
2022-12-01T02:21:54.608Z,86.00
2022-12-01T02:24:21.213Z,86.33
2022-12-01T02:27:01.724Z,84.17
2022-12-01T02:29:37.631Z,88.33
2022-12-01T02:32:11.814Z,87.83
2022-12-01T02:34:48.610Z,89.53
2022-12-01T02:37:30.624Z,90.93
2022-12-01T02:40:10.726Z,84.10
2022-12-01T02:42:49.901Z,83.50
2022-12-01T02:45:29.601Z,96.57
2022-12-01T02:48:01.040Z,94.10
2022-12-01T02:50:32.589Z,96.13
2022-12-01T02:53:01.671Z,89.73
2022-12-01T02:55:28.486Z,90.87
2022-12-01T02:57:55.218Z,95.80
2022-12-01T03:00:22.114Z,90.63
2022-12-01T03:03:18.056Z,91.27
2022-12-01T03:05:58.765Z,82.10
2022-12-01T03:08:35.819Z,99.10
2022-12-01T03:11:03.268Z,92.27
2022-12-01T03:13:56.397Z,85.90
2022-12-01T03:16:53.570Z,86.03
2022-12-01T03:19:42.118Z,80.97
2022-12-01T03:22:23.158Z,90.43
2022-12-01T03:24:53.580Z,86.93
2022-12-01T03:27:24.354Z,76.67
2022-12-01T03:29:56.266Z,82.90
2022-12-01T03:32:32.260Z,87.83
2022-12-01T03:35:04.893Z,86.27
2022-12-01T03:37:38.607Z,87.67
2022-12-01T03:40:09.342Z,84.80
2022-12-01T03:42:41.988Z,80.80
2022-12-01T03:45:15.247Z,86.97
2022-12-01T03:47:42.136Z,84.70
2022-12-01T03:50:13.953Z,81.90
2022-12-01T03:53:03.539Z,77.53
2022-12-01T03:55:35.441Z,81.33
2022-12-01T03:58:05.542Z,71.27
2022-12-01T04:00:33.150Z,81.80
2022-12-01T04:03:05.013Z,85.73
2022-12-01T04:05:34.539Z,80.53
2022-12-01T04:08:01.641Z,75.97
2022-12-01T04:10:28.541Z,81.37
2022-12-01T04:12:59.315Z,79.00
2022-12-01T04:15:27.243Z,74.80
2022-12-01T04:17:54.357Z,75.77
2022-12-01T04:20:21.994Z,77.90
2022-12-01T04:22:49.133Z,70.60
2022-12-01T04:25:16.037Z,76.13
2022-12-01T04:27:42.913Z,73.87
2022-12-01T04:30:10.849Z,70.37
2022-12-01T04:32:42.506Z,78.23
2022-12-01T04:35:11.594Z,70.67
2022-12-01T04:37:39.214Z,65.97
2022-12-01T04:40:07.065Z,74.83
2022-12-01T04:42:33.916Z,75.00
2022-12-01T04:45:00.694Z,66.97
2022-12-01T04:47:27.372Z,69.23
2022-12-01T04:49:54.562Z,67.97
2022-12-01T04:52:21.354Z,70.23
2022-12-01T04:54:48.075Z,67.13
2022-12-01T04:57:14.812Z,66.47
2022-12-01T04:59:41.515Z,72.93
2022-12-01T05:02:08.344Z,72.90
2022-12-01T05:04:38.592Z,76.03
2022-12-01T05:07:05.485Z,82.23
2022-12-01T05:09:32.379Z,85.83
2022-12-01T05:11:59.130Z,88.60
2022-12-01T05:14:29.780Z,81.03
2022-12-01T05:16:58.104Z,80.83
2022-12-01T05:19:43.321Z,84.03
2022-12-01T05:22:10.153Z,83.43
2022-12-01T05:24:36.859Z,84.33
2022-12-01T05:27:03.644Z,94.33
2022-12-01T05:29:33.116Z,81.23
2022-12-01T05:31:59.966Z,86.97
2022-12-01T05:34:26.863Z,87.07
2022-12-01T05:36:57.194Z,83.60
2022-12-01T05:39:44.138Z,91.70
2022-12-01T05:42:10.931Z,88.23
2022-12-01T05:44:37.670Z,82.77
2022-12-01T05:47:04.480Z,85.10
2022-12-01T05:49:31.267Z,85.00
2022-12-01T05:51:57.982Z,90.53
2022-12-01T05:54:24.711Z,96.07
2022-12-01T05:56:51.385Z,87.63
2022-12-01T05:59:18.102Z,101.90
2022-12-01T06:01:44.891Z,96.27
2022-12-01T06:04:11.867Z,95.80
2022-12-01T06:06:38.875Z,92.37
2022-12-01T06:09:05.809Z,104.73
2022-12-01T06:11:32.600Z,93.60
2022-12-01T06:13:59.347Z,91.30
2022-12-01T06:16:26.152Z,99.77
2022-12-01T06:18:53.013Z,101.60
2022-12-01T06:21:19.823Z,99.17
2022-12-01T06:23:46.539Z,92.70
2022-12-01T06:26:13.247Z,110.13
2022-12-01T06:28:40.015Z,93.27
2022-12-01T06:31:06.770Z,93.47
2022-12-01T06:33:33.676Z,96.70
2022-12-01T06:36:05.260Z,96.07
2022-12-01T06:38:33.978Z,85.67
2022-12-01T06:41:01.249Z,92.77
2022-12-01T06:43:28.334Z,93.17
2022-12-01T06:46:00.874Z,90.17
2022-12-01T06:48:28.944Z,92.90
2022-12-01T06:51:00.233Z,84.33
2022-12-01T06:53:28.623Z,90.10
2022-12-01T06:56:03.608Z,87.53
2022-12-01T06:58:31.295Z,94.37
2022-12-01T07:00:59.172Z,93.80
2022-12-01T07:03:26.277Z,95.60
2022-12-01T07:05:58.878Z,105.87
2022-12-01T07:08:26.985Z,90.60
2022-12-01T07:11:01.917Z,95.03
2022-12-01T07:13:33.405Z,91.57
2022-12-01T07:16:04.174Z,92.63
2022-12-01T07:18:31.593Z,94.20
2022-12-01T07:21:03.824Z,93.77
2022-12-01T07:23:31.560Z,99.97
2022-12-01T07:26:02.777Z,102.50
2022-12-01T07:28:30.466Z,97.50
2022-12-01T07:31:14.936Z,102.17
2022-12-01T07:33:42.794Z,87.73
2022-12-01T07:36:12.107Z,94.47
2022-12-01T07:38:40.218Z,102.23
2022-12-01T07:41:13.296Z,102.20
2022-12-01T07:43:41.053Z,96.23
2022-12-01T07:46:18.786Z,99.23
2022-12-01T07:48:50.126Z,99.63
2022-12-01T07:51:20.287Z,102.07
2022-12-01T07:53:49.594Z,96.50
2022-12-01T07:56:18.520Z,102.73
2022-12-01T07:58:46.244Z,90.03
2022-12-01T08:01:16.897Z,96.83
2022-12-01T08:03:44.818Z,89.30
2022-12-01T08:06:13.738Z,96.90
2022-12-01T08:08:42.017Z,96.70
2022-12-01T08:11:18.640Z,107.73
2022-12-01T08:13:46.281Z,103.07
2022-12-01T08:16:15.980Z,102.53
2022-12-01T08:18:45.303Z,97.10
2022-12-01T08:21:15.206Z,108.13
2022-12-01T08:23:43.004Z,101.70
2022-12-01T08:26:15.772Z,105.47
2022-12-01T08:28:46.422Z,104.37
2022-12-01T08:31:15.735Z,102.00
2022-12-01T08:33:45.438Z,110.80
2022-12-01T08:36:13.202Z,99.67
2022-12-01T08:38:43.844Z,92.90
2022-12-01T08:41:12.247Z,99.80
2022-12-01T08:43:57.320Z,107.80
2022-12-01T08:46:31.404Z,112.27
2022-12-01T08:48:58.829Z,98.63
2022-12-01T08:51:26.763Z,103.67
2022-12-01T08:53:55.730Z,101.37
2022-12-01T08:56:28.353Z,100.40
2022-12-01T08:58:56.292Z,99.80
2022-12-01T09:01:25.789Z,99.30
2022-12-01T09:04:05.886Z,108.27
2022-12-01T09:06:38.552Z,99.93
2022-12-01T09:09:06.937Z,98.90
2022-12-01T09:11:34.491Z,106.83
2022-12-01T09:14:01.812Z,101.33
2022-12-01T09:16:29.300Z,100.43
2022-12-01T09:18:57.751Z,102.20
2022-12-01T09:21:30.642Z,103.27
2022-12-01T09:23:58.288Z,101.77
2022-12-01T09:26:26.445Z,107.80
2022-12-01T09:28:55.309Z,101.77
2022-12-01T09:31:25.980Z,100.40
2022-12-01T09:34:05.416Z,104.63
2022-12-01T09:36:34.035Z,104.43
2022-12-01T09:39:01.717Z,99.13
2022-12-01T09:41:40.148Z,104.37
2022-12-01T09:44:31.331Z,105.67
2022-12-01T09:47:20.605Z,102.73
2022-12-01T09:50:06.691Z,92.83
2022-12-01T09:52:48.126Z,124.73
2022-12-01T09:55:17.837Z,98.10
2022-12-01T09:57:50.491Z,99.57
2022-12-01T10:00:21.805Z,100.10
2022-12-01T10:03:17.121Z,93.77
2022-12-01T10:06:18.641Z,104.50
2022-12-01T10:08:40.294Z,101.40
2022-12-01T10:11:33.697Z,108.27
2022-12-01T10:14:01.596Z,108.53
2022-12-01T10:16:40.416Z,99.10
2022-12-01T10:19:20.112Z,103.47
2022-12-01T10:22:00.148Z,108.77
2022-12-01T10:24:33.434Z,106.20
2022-12-01T10:27:42.451Z,100.20
2022-12-01T10:30:15.676Z,102.70
2022-12-01T10:32:56.400Z,104.60
2022-12-01T10:35:36.294Z,100.83
2022-12-01T10:38:15.605Z,99.23
2022-12-01T10:40:44.549Z,101.57
2022-12-01T10:43:14.316Z,97.60
2022-12-01T10:45:45.055Z,96.53
2022-12-01T10:48:19.480Z,97.57
2022-12-01T10:50:52.065Z,96.37
2022-12-01T10:53:36.666Z,103.37
2022-12-01T10:56:12.340Z,107.70
2022-12-01T10:59:00.133Z,103.60
2022-12-01T11:01:35.873Z,97.83
2022-12-01T11:04:03.524Z,106.03
2022-12-01T11:06:31.345Z,94.33
2022-12-01T11:09:05.043Z,96.57
2022-12-01T11:11:39.961Z,103.50
2022-12-01T11:14:22.994Z,104.40
2022-12-01T11:16:54.105Z,88.67
2022-12-01T11:19:27.661Z,107.43
2022-12-01T11:21:58.064Z,98.03
2022-12-01T11:24:33.925Z,105.80
2022-12-01T11:27:01.520Z,101.23
2022-12-01T11:29:37.772Z,103.83
2022-12-01T11:32:17.921Z,98.93
2022-12-01T11:34:52.506Z,97.73
2022-12-01T11:37:22.584Z,95.57
2022-12-01T11:39:52.103Z,93.27
2022-12-01T11:42:29.834Z,101.93
2022-12-01T11:45:03.652Z,96.07
2022-12-01T11:47:30.948Z,84.20
2022-12-01T11:50:01.597Z,101.50
2022-12-01T11:52:46.634Z,79.53
2022-12-01T11:55:16.593Z,86.83
2022-12-01T11:57:46.191Z,92.50
2022-12-01T12:00:19.591Z,84.83
2022-12-01T12:03:14.571Z,84.93
2022-12-01T12:06:31.886Z,81.33
2022-12-01T12:09:29.478Z,75.00
2022-12-01T12:12:10.205Z,84.97
2022-12-01T12:14:43.042Z,76.97
2022-12-01T12:17:16.855Z,85.60
2022-12-01T12:20:10.552Z,72.50
2022-12-01T12:22:55.755Z,70.50
2022-12-01T12:25:23.484Z,78.83
2022-12-01T12:28:29.305Z,74.90
2022-12-01T12:31:19.060Z,81.30
2022-12-01T12:34:04.930Z,77.33
2022-12-01T12:36:43.802Z,80.50
2022-12-01T12:39:46.737Z,71.13
2022-12-01T12:42:45.633Z,70.57
2022-12-01T12:45:20.358Z,75.43
2022-12-01T12:48:07.780Z,68.73
2022-12-01T12:50:55.715Z,76.17
2022-12-01T12:53:30.387Z,77.40
2022-12-01T12:56:05.270Z,74.13
2022-12-01T12:58:40.365Z,80.53
2022-12-01T13:01:18.217Z,81.10
2022-12-01T13:03:54.188Z,68.30
2022-12-01T13:06:34.864Z,64.87
2022-12-01T13:09:12.738Z,72.97
2022-12-01T13:11:57.640Z,72.63
2022-12-01T13:14:42.948Z,69.93
2022-12-01T13:17:18.963Z,78.77
2022-12-01T13:19:47.618Z,74.80
2022-12-01T13:22:17.447Z,71.17
2022-12-01T13:24:45.053Z,71.00
2022-12-01T13:27:13.329Z,75.20
2022-12-01T13:29:47.026Z,65.67
2022-12-01T13:32:47.420Z,68.10
2022-12-01T13:35:37.991Z,82.70
2022-12-01T13:38:30.834Z,76.50
2022-12-01T13:41:19.778Z,73.53
2022-12-01T13:44:20.268Z,69.47
2022-12-01T13:46:47.539Z,67.53
2022-12-01T13:49:51.375Z,70.17
2022-12-01T13:52:21.808Z,65.93
2022-12-01T13:55:01.410Z,68.20
2022-12-01T13:57:31.970Z,77.93
2022-12-01T13:59:59.025Z,65.33
2022-12-01T14:02:29.093Z,73.07
2022-12-01T14:05:24.934Z,68.00
2022-12-01T14:07:53.971Z,65.20
2022-12-01T14:10:25.970Z,72.90
2022-12-01T14:12:56.865Z,67.13
2022-12-01T14:15:31.101Z,67.40
2022-12-01T14:18:39.687Z,74.30
2022-12-01T14:21:10.661Z,68.23
2022-12-01T14:23:58.614Z,68.17
2022-12-01T14:26:28.687Z,74.27
2022-12-01T14:28:55.744Z,68.03
2022-12-01T14:31:25.127Z,73.43
2022-12-01T14:33:59.214Z,69.17
2022-12-01T14:36:53.011Z,72.20
2022-12-01T14:39:24.427Z,67.63
2022-12-01T14:42:06.751Z,74.90
2022-12-01T14:44:43.671Z,65.53
2022-12-01T14:47:13.518Z,67.07
2022-12-01T14:49:58.725Z,67.37
2022-12-01T14:52:27.028Z,64.20
2022-12-01T14:55:00.613Z,70.13
2022-12-01T14:57:46.451Z,69.93
2022-12-01T15:00:18.952Z,71.27
2022-12-01T15:02:56.598Z,76.30
2022-12-01T15:05:30.137Z,82.90
2022-12-01T15:08:40.365Z,68.90
2022-12-01T15:11:09.400Z,74.17
2022-12-01T15:13:54.839Z,65.77
2022-12-01T15:16:24.748Z,66.70
2022-12-01T15:18:52.739Z,69.37
2022-12-01T15:21:31.677Z,73.97
2022-12-01T15:24:20.716Z,71.67
2022-12-01T15:26:50.974Z,70.90
2022-12-01T15:29:19.768Z,78.47
2022-12-01T15:31:49.630Z,67.67
2022-12-01T15:34:44.740Z,69.40
2022-12-01T15:37:16.098Z,72.27
2022-12-01T15:39:46.676Z,73.20
2022-12-01T15:42:34.958Z,62.83
2022-12-01T15:45:16.012Z,76.27
2022-12-01T15:47:46.437Z,73.97
2022-12-01T15:50:41.264Z,73.73
2022-12-01T15:53:22.351Z,66.43
2022-12-01T15:55:55.595Z,76.37
2022-12-01T15:58:30.488Z,66.80
2022-12-01T16:01:03.743Z,73.87
2022-12-01T16:03:31.498Z,69.77
2022-12-01T16:05:59.789Z,63.43
2022-12-01T16:08:28.680Z,67.57
2022-12-01T16:11:19.136Z,68.00
2022-12-01T16:13:56.839Z,64.47
2022-12-01T16:16:27.196Z,78.47
2022-12-01T16:19:00.455Z,71.87
2022-12-01T16:21:28.878Z,74.63
2022-12-01T16:24:05.287Z,65.20
2022-12-01T16:26:33.927Z,68.33
2022-12-01T16:29:01.392Z,69.53
2022-12-01T16:31:28.829Z,73.40
2022-12-01T16:34:18.423Z,69.27
2022-12-01T16:36:51.076Z,60.07
2022-12-01T16:39:18.502Z,71.43
2022-12-01T16:41:47.038Z,65.87
2022-12-01T16:44:30.890Z,66.40
2022-12-01T16:46:58.175Z,67.50
2022-12-01T16:49:25.903Z,69.03
2022-12-01T16:51:57.373Z,63.97
2022-12-01T16:54:25.694Z,62.10
2022-12-01T16:56:53.001Z,67.27
2022-12-01T16:59:20.392Z,67.53
2022-12-01T17:01:47.625Z,60.70
2022-12-01T17:04:15.250Z,63.23
2022-12-01T17:06:43.216Z,67.63
2022-12-01T17:09:10.467Z,63.60
2022-12-01T17:11:37.723Z,71.20
2022-12-01T17:14:05.498Z,73.40
2022-12-01T17:16:33.571Z,57.20
2022-12-01T17:19:01.614Z,63.47
2022-12-01T17:21:29.519Z,71.53
2022-12-01T17:23:57.280Z,58.10
2022-12-01T17:26:24.642Z,58.87
2022-12-01T17:28:55.319Z,61.73
2022-12-01T17:31:22.604Z,57.20
2022-12-01T17:33:50.669Z,59.33
2022-12-01T17:36:18.803Z,60.47
2022-12-01T17:38:51.127Z,64.30
2022-12-01T17:41:22.052Z,56.50
2022-12-01T17:43:49.444Z,56.33
2022-12-01T17:46:17.035Z,69.20
2022-12-01T17:48:46.589Z,55.93
2022-12-01T17:51:15.441Z,54.80
2022-12-01T17:53:42.971Z,58.93
2022-12-01T17:56:12.961Z,56.83
2022-12-01T17:58:40.882Z,57.77
2022-12-01T18:01:16.038Z,56.57
2022-12-01T18:03:43.590Z,55.13
2022-12-01T18:06:11.434Z,68.10
2022-12-01T18:08:40.044Z,62.93
2022-12-01T18:11:12.842Z,63.10
2022-12-01T18:13:42.701Z,71.27
2022-12-01T18:16:15.980Z,61.87
2022-12-01T18:18:44.089Z,68.70
2022-12-01T18:21:14.260Z,64.20
2022-12-01T18:23:42.166Z,59.97
2022-12-01T18:26:16.028Z,67.60
2022-12-01T18:28:44.917Z,73.27
2022-12-01T18:31:15.687Z,64.20
2022-12-01T18:33:44.994Z,66.87
2022-12-01T18:36:16.905Z,61.87
2022-12-01T18:38:47.327Z,60.33
2022-12-01T18:41:15.429Z,63.70
2022-12-01T18:43:43.427Z,70.30
2022-12-01T18:46:14.487Z,64.10
2022-12-01T18:48:46.692Z,64.97
2022-12-01T18:51:15.177Z,59.70
2022-12-01T18:53:42.569Z,65.93
2022-12-01T18:56:12.041Z,59.47
2022-12-01T18:58:40.017Z,65.00
2022-12-01T19:01:26.747Z,63.50
2022-12-01T19:03:58.637Z,68.23
2022-12-01T19:06:26.620Z,70.73
2022-12-01T19:08:54.612Z,58.40
2022-12-01T19:11:22.568Z,57.47
2022-12-01T19:13:50.098Z,58.07
2022-12-01T19:16:20.142Z,65.70
2022-12-01T19:18:47.960Z,61.10
2022-12-01T19:21:17.982Z,62.63
2022-12-01T19:23:46.637Z,62.03
2022-12-01T19:26:16.532Z,60.27
2022-12-01T19:28:45.906Z,69.00
2022-12-01T19:32:04.287Z,67.97
2022-12-01T19:34:06.244Z,68.80
2022-12-01T19:36:33.697Z,87.63
2022-12-01T19:39:04.475Z,72.90
2022-12-01T19:41:34.561Z,62.90
2022-12-01T19:44:02.812Z,65.77
2022-12-01T19:46:29.996Z,65.53
2022-12-01T19:49:01.610Z,70.10
2022-12-01T19:51:37.886Z,79.23
2022-12-01T19:54:07.193Z,84.60
2022-12-01T19:56:34.317Z,78.07
2022-12-01T19:59:01.146Z,78.73
2022-12-01T20:01:28.525Z,65.73
2022-12-01T20:03:55.866Z,76.80
2022-12-01T20:06:25.632Z,70.13
2022-12-01T20:08:54.219Z,71.47
2022-12-01T20:11:21.736Z,70.17
2022-12-01T20:13:49.031Z,72.03
2022-12-01T20:16:18.832Z,74.20
2022-12-01T20:18:46.836Z,68.77
2022-12-01T20:21:30.300Z,65.20
2022-12-01T20:24:02.494Z,70.17
2022-12-01T20:26:32.709Z,69.60
2022-12-01T20:29:04.778Z,73.17
2022-12-01T20:31:33.507Z,65.63
2022-12-01T20:34:03.491Z,71.50
2022-12-01T20:36:30.966Z,65.83
2022-12-01T20:38:58.700Z,77.33
2022-12-01T20:41:25.844Z,71.50
2022-12-01T20:43:52.955Z,78.47
2022-12-01T20:46:20.452Z,70.93
2022-12-01T20:48:47.768Z,77.60
2022-12-01T20:51:15.639Z,79.97
2022-12-01T20:53:59.573Z,76.80
2022-12-01T20:56:31.435Z,79.53
2022-12-01T20:58:59.128Z,82.30
2022-12-01T21:01:26.797Z,78.90
2022-12-01T21:03:53.950Z,86.90
2022-12-01T21:06:22.293Z,79.13
2022-12-01T21:08:50.490Z,85.67
2022-12-01T21:11:44.021Z,89.13
2022-12-01T21:14:37.946Z,87.30
2022-12-01T21:17:14.313Z,78.80
2022-12-01T21:19:54.689Z,84.93
2022-12-01T21:22:22.459Z,84.90
2022-12-01T21:24:52.126Z,94.23
2022-12-01T21:27:20.209Z,91.90
2022-12-01T21:29:49.353Z,85.90
2022-12-01T21:32:29.403Z,91.77
2022-12-01T21:35:01.633Z,89.93
2022-12-01T21:37:28.851Z,99.23
2022-12-01T21:39:57.319Z,95.53
2022-12-01T21:42:30.823Z,92.27
2022-12-01T21:44:57.973Z,94.40
2022-12-01T21:47:27.556Z,91.17
2022-12-01T21:49:57.437Z,99.00
2022-12-01T21:52:33.198Z,94.90
2022-12-01T21:55:23.035Z,102.13
2022-12-01T21:57:52.232Z,99.07
2022-12-01T22:00:28.145Z,88.53
2022-12-01T22:03:28.204Z,78.13
2022-12-01T22:06:28.748Z,94.13
2022-12-01T22:08:58.055Z,77.47
2022-12-01T22:11:30.113Z,89.27
2022-12-01T22:13:59.969Z,74.90
2022-12-01T22:16:36.205Z,73.90
2022-12-01T22:19:23.506Z,81.70
2022-12-01T22:21:59.773Z,76.37
2022-12-01T22:24:37.337Z,86.00
2022-12-01T22:27:27.660Z,74.97
2022-12-01T22:30:07.570Z,90.77
2022-12-01T22:32:39.535Z,77.77
2022-12-01T22:35:26.578Z,82.77
2022-12-01T22:38:01.358Z,83.23
2022-12-01T22:40:48.702Z,86.87
2022-12-01T22:43:15.374Z,74.90
2022-12-01T22:45:48.389Z,97.20
2022-12-01T22:48:27.403Z,82.67
2022-12-01T22:50:55.434Z,77.53
2022-12-01T22:53:31.298Z,81.30
2022-12-01T22:56:01.002Z,71.17
2022-12-01T22:58:32.452Z,81.77
2022-12-01T23:01:11.153Z,80.20
2022-12-01T23:03:38.179Z,81.93
2022-12-01T23:06:48.380Z,73.93
2022-12-01T23:09:17.172Z,69.70
2022-12-01T23:11:45.580Z,77.53
2022-12-01T23:14:16.801Z,73.17
2022-12-01T23:16:45.010Z,73.43
2022-12-01T23:19:12.080Z,74.30
2022-12-01T23:21:39.146Z,75.87
2022-12-01T23:24:07.196Z,77.63
2022-12-01T23:26:36.182Z,65.00
2022-12-01T23:29:03.265Z,65.67
2022-12-01T23:31:30.251Z,61.97
2022-12-01T23:33:58.014Z,60.93
2022-12-01T23:36:27.906Z,61.67
2022-12-01T23:38:58.349Z,53.70
2022-12-01T23:41:33.303Z,69.43
2022-12-01T23:44:12.210Z,64.97
2022-12-01T23:46:39.174Z,61.27
2022-12-01T23:49:12.214Z,61.13
2022-12-01T23:51:44.278Z,67.37
2022-12-01T23:54:16.872Z,67.23
2022-12-01T23:56:50.588Z,68.77
2022-12-01T23:59:19.646Z,70.23
